createdAt,value
2017-03-27T00:00:09.639Z,61.29
2017-03-27T00:00:50.517Z,61.39
2017-03-27T00:01:31.389Z,61.2
2017-03-27T00:02:12.270Z,61.29
2017-03-27T00:02:53.154Z,61.29
2017-03-27T00:03:34.038Z,60.63
2017-03-27T00:04:14.923Z,60.91
2017-03-27T00:04:55.803Z,60.72
2017-03-27T00:05:36.685Z,60.82
2017-03-27T00:06:17.573Z,60.82
2017-03-27T00:06:58.454Z,61.2
2017-03-27T00:07:39.340Z,61.29
2017-03-27T00:08:20.221Z,61.1
2017-03-27T00:09:01.104Z,61.2
2017-03-27T00:09:41.991Z,61.58
2017-03-27T00:10:22.870Z,61.77
2017-03-27T00:11:03.747Z,61.96
2017-03-27T00:11:44.634Z,61.48
2017-03-27T00:12:25.517Z,61.68
2017-03-27T00:13:06.402Z,61.68
2017-03-27T00:13:47.285Z,61.58
2017-03-27T00:14:28.169Z,61.29
2017-03-27T00:15:09.056Z,61.48
2017-03-27T00:15:49.943Z,61.77
2017-03-27T00:16:30.824Z,61.29
2017-03-27T00:17:11.709Z,61.68
2017-03-27T00:17:52.582Z,61.58
2017-03-27T00:18:33.464Z,61.1
2017-03-27T00:19:14.352Z,61.01
2017-03-27T00:19:55.238Z,61.1
2017-03-27T00:20:36.121Z,60.44
2017-03-27T00:21:17.002Z,61.1
2017-03-27T00:21:57.889Z,61.48
2017-03-27T00:22:38.776Z,62.05
2017-03-27T00:23:19.656Z,61.68
2017-03-27T00:24:00.538Z,62.05
2017-03-27T00:24:41.421Z,61.77
2017-03-27T00:25:22.298Z,61.1
2017-03-27T00:26:03.190Z,60.63
2017-03-27T00:26:44.057Z,60.44
2017-03-27T00:27:24.931Z,60.82
2017-03-27T00:28:05.817Z,60.72
2017-03-27T00:28:46.695Z,60.35
2017-03-27T00:29:27.576Z,61.39
2017-03-27T00:30:08.459Z,61.87
2017-03-27T00:30:49.345Z,62.31
2017-03-27T00:31:30.237Z,62.78
2017-03-27T00:32:11.149Z,62.97
2017-03-27T00:32:52.024Z,63.35
2017-03-27T00:33:32.897Z,63.35
2017-03-27T00:34:13.777Z,63.17
2017-03-27T00:34:54.658Z,63.17
2017-03-27T00:35:35.554Z,62.88
2017-03-27T00:36:16.431Z,63.29
2017-03-27T00:36:57.303Z,62.43
2017-03-27T00:37:38.180Z,62.05
2017-03-27T00:38:19.060Z,62.62
2017-03-27T00:38:59.942Z,62.62
2017-03-27T00:39:40.821Z,63.07
2017-03-27T00:40:21.708Z,63.26
2017-03-27T00:41:02.593Z,63.07
2017-03-27T00:41:43.472Z,63.07
2017-03-27T00:42:24.356Z,63.45
2017-03-27T00:43:05.239Z,63.45
2017-03-27T00:43:46.150Z,63.73
2017-03-27T00:44:27.032Z,63.92
2017-03-27T00:45:07.914Z,63.73
2017-03-27T00:45:48.805Z,63.64
2017-03-27T00:46:29.686Z,63.26
2017-03-27T00:47:10.566Z,63.45
2017-03-27T00:47:51.447Z,63.07
2017-03-27T00:48:32.327Z,63.26
2017-03-27T00:49:13.202Z,62.97
2017-03-27T00:49:54.084Z,63.26
2017-03-27T00:50:34.963Z,63.17
2017-03-27T00:51:15.844Z,63.07
2017-03-27T00:51:56.726Z,63.17
2017-03-27T00:52:37.615Z,62.88
2017-03-27T00:53:18.487Z,63.26
2017-03-27T00:53:59.380Z,63.07
2017-03-27T00:54:40.274Z,62.97
2017-03-27T00:55:21.162Z,62.91
2017-03-27T00:56:02.033Z,62.15
2017-03-27T00:56:42.912Z,61.68
2017-03-27T00:57:23.793Z,61.68
2017-03-27T00:58:04.678Z,62.24
2017-03-27T00:58:45.560Z,62.4
2017-03-27T00:59:26.433Z,63.07
2017-03-27T01:00:07.312Z,63.17
2017-03-27T01:00:48.197Z,63.54
2017-03-27T01:01:29.075Z,63.17
2017-03-27T01:02:09.955Z,63.54
2017-03-27T01:02:50.837Z,63.29
2017-03-27T01:03:31.715Z,62.43
2017-03-27T01:04:12.596Z,62.02
2017-03-27T01:04:53.478Z,62.24
2017-03-27T01:05:34.361Z,61.77
2017-03-27T01:06:15.236Z,61.77
2017-03-27T01:06:56.117Z,61.87
2017-03-27T01:07:37.023Z,61.58
2017-03-27T01:08:17.880Z,61.87
2017-03-27T01:08:58.762Z,61.58
2017-03-27T01:09:39.639Z,61.58
2017-03-27T01:10:20.522Z,61.58
2017-03-27T01:11:01.415Z,61.96
2017-03-27T01:11:42.279Z,61.77
2017-03-27T01:12:23.158Z,61.48
2017-03-27T01:13:04.060Z,61.77
2017-03-27T01:13:44.939Z,61.77
2017-03-27T01:14:25.830Z,61.55
2017-03-27T01:15:06.712Z,62.21
2017-03-27T01:15:47.602Z,62.05
2017-03-27T01:16:28.482Z,62.15
2017-03-27T01:17:09.361Z,61.77
2017-03-27T01:17:50.241Z,61.58
2017-03-27T01:18:31.127Z,61.87
2017-03-27T01:19:12.010Z,61.68
2017-03-27T01:19:52.885Z,61.77
2017-03-27T01:20:33.768Z,62.24
2017-03-27T01:21:14.658Z,62.15
2017-03-27T01:21:55.533Z,61.48
2017-03-27T01:22:36.418Z,61.68
2017-03-27T01:23:17.310Z,61.87
2017-03-27T01:23:58.203Z,62.21
2017-03-27T01:24:39.088Z,62.78
2017-03-27T01:25:19.967Z,62.81
2017-03-27T01:26:00.850Z,62.5
2017-03-27T01:26:41.738Z,62.02
2017-03-27T01:27:22.616Z,62.02
2017-03-27T01:28:03.509Z,62.69
2017-03-27T01:28:44.388Z,62.24
2017-03-27T01:29:25.267Z,61.65
2017-03-27T01:30:06.147Z,61.96
2017-03-27T01:30:47.034Z,62.05
2017-03-27T01:31:27.915Z,61.77
2017-03-27T01:32:08.795Z,61.87
2017-03-27T01:32:49.674Z,61.74
2017-03-27T01:33:30.553Z,62.31
2017-03-27T01:34:11.445Z,62.12
2017-03-27T01:34:52.331Z,62.05
2017-03-27T01:35:33.213Z,62.69
2017-03-27T01:36:14.092Z,63.26
2017-03-27T01:36:54.978Z,62.78
2017-03-27T01:37:35.861Z,62.53
2017-03-27T01:38:16.751Z,62.5
2017-03-27T01:38:57.633Z,62.69
2017-03-27T01:39:38.515Z,62.78
2017-03-27T01:40:19.397Z,62.69
2017-03-27T01:41:00.280Z,62.78
2017-03-27T01:41:41.160Z,62.59
2017-03-27T01:42:22.044Z,62.59
2017-03-27T01:43:02.936Z,62.43
2017-03-27T01:43:43.814Z,63.35
2017-03-27T01:44:24.693Z,63.35
2017-03-27T01:45:05.579Z,63.07
2017-03-27T01:45:46.460Z,63.64
2017-03-27T01:46:27.350Z,63.54
2017-03-27T01:47:08.223Z,63.54
2017-03-27T01:47:49.091Z,63.35
2017-03-27T01:48:29.970Z,63.35
2017-03-27T01:49:10.860Z,63.54
2017-03-27T01:49:51.736Z,63.64
2017-03-27T01:50:32.621Z,63.73
2017-03-27T01:51:13.508Z,63.64
2017-03-27T01:51:54.377Z,63.45
2017-03-27T01:52:35.273Z,63.83
2017-03-27T01:53:16.181Z,63.73
2017-03-27T01:53:57.040Z,64.21
2017-03-27T01:54:37.914Z,63.45
2017-03-27T01:55:18.819Z,63.54
2017-03-27T01:55:59.676Z,63.64
2017-03-27T01:56:40.561Z,63.17
2017-03-27T01:57:21.447Z,63.45
2017-03-27T01:58:02.330Z,63.54
2017-03-27T01:58:43.219Z,63.92
2017-03-27T01:59:24.097Z,64.11
2017-03-27T02:00:04.977Z,64.3
2017-03-27T02:00:45.857Z,64.21
2017-03-27T02:01:26.734Z,64.11
2017-03-27T02:02:07.607Z,63.73
2017-03-27T02:02:48.480Z,63.83
2017-03-27T02:03:29.357Z,63.73
2017-03-27T02:04:10.240Z,63.92
2017-03-27T02:04:51.126Z,63.64
2017-03-27T02:05:32.006Z,63.83
2017-03-27T02:06:12.891Z,63.64
2017-03-27T02:06:53.770Z,64.21
2017-03-27T02:07:34.656Z,64.21
2017-03-27T02:08:15.534Z,64.21
2017-03-27T02:08:56.415Z,64.69
2017-03-27T02:09:37.298Z,64.11
2017-03-27T02:10:18.193Z,64.3
2017-03-27T02:10:59.070Z,64.4
2017-03-27T02:11:39.948Z,64.4
2017-03-27T02:12:20.822Z,64.3
2017-03-27T02:13:01.707Z,64.11
2017-03-27T02:13:42.588Z,64.3
2017-03-27T02:14:23.487Z,64.02
2017-03-27T02:15:04.361Z,64.21
2017-03-27T02:15:45.250Z,63.73
2017-03-27T02:16:26.138Z,64.02
2017-03-27T02:17:07.003Z,64.3
2017-03-27T02:17:47.897Z,64.11
2017-03-27T02:18:28.783Z,64.21
2017-03-27T02:19:09.664Z,64.21
2017-03-27T02:19:50.542Z,64.4
2017-03-27T02:20:31.430Z,64.49
2017-03-27T02:21:12.311Z,64.59
2017-03-27T02:21:53.195Z,64.78
2017-03-27T02:22:34.077Z,65.06
2017-03-27T02:23:14.946Z,64.87
2017-03-27T02:23:55.834Z,64.49
2017-03-27T02:24:36.715Z,65.06
2017-03-27T02:25:17.593Z,64.78
2017-03-27T02:25:58.476Z,64.87
2017-03-27T02:26:39.357Z,64.69
2017-03-27T02:27:20.238Z,65.16
2017-03-27T02:28:01.121Z,64.4
2017-03-27T02:28:41.995Z,65.06
2017-03-27T02:29:22.866Z,65.25
2017-03-27T02:30:03.751Z,64.49
2017-03-27T02:30:44.635Z,64.59
2017-03-27T02:31:25.515Z,64.69
2017-03-27T02:32:06.395Z,64.59
2017-03-27T02:32:47.281Z,64.78
2017-03-27T02:33:28.170Z,64.69
2017-03-27T02:34:09.047Z,64.78
2017-03-27T02:34:49.921Z,64.78
2017-03-27T02:35:30.813Z,65.16
2017-03-27T02:36:11.702Z,64.97
2017-03-27T02:36:52.580Z,65.44
2017-03-27T02:37:33.463Z,65.25
2017-03-27T02:38:14.350Z,65.25
2017-03-27T02:38:55.229Z,65.06
2017-03-27T02:39:36.128Z,65.44
2017-03-27T02:40:17.004Z,65.82
2017-03-27T02:40:57.887Z,65.73
2017-03-27T02:41:38.770Z,66.2
2017-03-27T02:42:19.652Z,66.3
2017-03-27T02:43:00.531Z,66.11
2017-03-27T02:43:41.411Z,66.64
2017-03-27T02:44:22.293Z,67.02
2017-03-27T02:45:03.173Z,66.64
2017-03-27T02:45:44.060Z,66.93
2017-03-27T02:46:24.947Z,67.31
2017-03-27T02:47:05.829Z,67.21
2017-03-27T02:47:46.706Z,67.79
2017-03-27T02:48:27.604Z,67.5
2017-03-27T02:49:08.488Z,66.74
2017-03-27T02:49:49.368Z,66.17
2017-03-27T02:50:30.248Z,65.88
2017-03-27T02:51:11.128Z,66.2
2017-03-27T02:51:52.012Z,65.73
2017-03-27T02:52:32.889Z,66.2
2017-03-27T02:53:13.768Z,66.27
2017-03-27T02:53:54.648Z,67.02
2017-03-27T02:54:35.534Z,67.4
2017-03-27T02:55:16.425Z,67.5
2017-03-27T02:55:57.310Z,67.4
2017-03-27T02:56:38.195Z,67.12
2017-03-27T02:57:19.073Z,67.02
2017-03-27T02:57:59.957Z,66.83
2017-03-27T02:58:40.840Z,66.93
2017-03-27T02:59:21.729Z,65.88
2017-03-27T03:00:02.614Z,66.39
2017-03-27T03:00:43.496Z,66.11
2017-03-27T03:01:24.368Z,66.3
2017-03-27T03:02:05.247Z,66.3
2017-03-27T03:02:46.133Z,66.49
2017-03-27T03:03:27.021Z,65.73
2017-03-27T03:04:07.904Z,66.2
2017-03-27T03:04:48.797Z,66.36
2017-03-27T03:05:29.679Z,66.17
2017-03-27T03:06:10.580Z,66.55
2017-03-27T03:06:51.441Z,66.93
2017-03-27T03:07:32.321Z,67.5
2017-03-27T03:08:13.214Z,67.12
2017-03-27T03:08:54.095Z,66.64
2017-03-27T03:09:34.977Z,66.74
2017-03-27T03:10:15.877Z,66.46
2017-03-27T03:10:56.767Z,66.74
2017-03-27T03:11:37.646Z,66.08
2017-03-27T03:12:18.519Z,66.27
2017-03-27T03:12:59.399Z,66.55
2017-03-27T03:13:40.284Z,66.55
2017-03-27T03:14:21.168Z,66.55
2017-03-27T03:15:02.049Z,66.64
2017-03-27T03:15:42.929Z,65.98
2017-03-27T03:16:23.817Z,66.74
2017-03-27T03:17:04.699Z,66.17
2017-03-27T03:17:45.583Z,66.64
2017-03-27T03:18:26.468Z,65.88
2017-03-27T03:19:07.355Z,66.64
2017-03-27T03:19:48.253Z,66.46
2017-03-27T03:20:29.139Z,66.27
2017-03-27T03:21:10.027Z,65.6
2017-03-27T03:21:50.910Z,66.08
2017-03-27T03:22:31.797Z,65.79
2017-03-27T03:23:12.677Z,65.79
2017-03-27T03:23:53.559Z,66.74
2017-03-27T03:24:34.446Z,66.64
2017-03-27T03:25:15.330Z,66.27
2017-03-27T03:25:56.214Z,66.83
2017-03-27T03:26:37.105Z,66.74
2017-03-27T03:27:17.984Z,66.83
2017-03-27T03:27:58.858Z,66.46
2017-03-27T03:28:39.739Z,66.64
2017-03-27T03:29:20.622Z,66.83
2017-03-27T03:30:01.506Z,66.93
2017-03-27T03:30:42.391Z,67.02
2017-03-27T03:31:23.274Z,66.74
2017-03-27T03:32:04.155Z,66.93
2017-03-27T03:32:45.038Z,66.17
2017-03-27T03:33:25.930Z,66.17
2017-03-27T03:34:06.813Z,66.08
2017-03-27T03:34:47.692Z,66.27
2017-03-27T03:35:28.573Z,66.55
2017-03-27T03:36:09.451Z,66.17
2017-03-27T03:36:50.332Z,66.08
2017-03-27T03:37:31.217Z,66.27
2017-03-27T03:38:12.098Z,65.98
2017-03-27T03:38:52.982Z,66.46
2017-03-27T03:39:33.872Z,66.46
2017-03-27T03:40:14.760Z,65.98
2017-03-27T03:40:55.647Z,66.83
2017-03-27T03:41:36.533Z,65.98
2017-03-27T03:42:17.430Z,66.55
2017-03-27T03:42:58.307Z,67.02
2017-03-27T03:43:39.206Z,67.02
2017-03-27T03:44:20.053Z,66.93
2017-03-27T03:45:00.936Z,67.02
2017-03-27T03:45:41.820Z,66.83
2017-03-27T03:46:22.698Z,67.02
2017-03-27T03:47:03.576Z,66.74
2017-03-27T03:47:44.458Z,67.21
2017-03-27T03:48:25.342Z,67.21
2017-03-27T03:49:06.225Z,67.4
2017-03-27T03:49:47.100Z,66.93
2017-03-27T03:50:27.994Z,67.02
2017-03-27T03:51:08.888Z,67.21
2017-03-27T03:51:49.770Z,66.83
2017-03-27T03:52:30.649Z,66.93
2017-03-27T03:53:11.537Z,67.4
2017-03-27T03:53:52.429Z,67.12
2017-03-27T03:54:33.307Z,67.79
2017-03-27T03:55:14.183Z,67.88
2017-03-27T03:55:55.068Z,67.88
2017-03-27T03:56:35.950Z,67.88
2017-03-27T03:57:16.832Z,67.69
2017-03-27T03:57:57.713Z,68.16
2017-03-27T03:58:38.603Z,67.4
2017-03-27T03:59:19.487Z,67.97
2017-03-27T04:00:00.368Z,67.4
2017-03-27T04:00:41.253Z,67.31
2017-03-27T04:01:22.137Z,67.21
2017-03-27T04:02:03.024Z,67.5
2017-03-27T04:02:43.910Z,67.59
2017-03-27T04:03:24.788Z,66.93
2017-03-27T04:04:05.668Z,67.59
2017-03-27T04:04:46.549Z,66.64
2017-03-27T04:05:27.431Z,67.5
2017-03-27T04:06:08.305Z,67.4
2017-03-27T04:06:49.182Z,67.5
2017-03-27T04:07:30.061Z,67.97
2017-03-27T04:08:10.945Z,67.69
2017-03-27T04:08:51.825Z,67.88
2017-03-27T04:09:32.709Z,67.79
2017-03-27T04:10:13.595Z,67.21
2017-03-27T04:10:54.478Z,67.4
2017-03-27T04:11:35.362Z,67.4
2017-03-27T04:12:16.242Z,67.4
2017-03-27T04:12:57.128Z,67.79
2017-03-27T04:13:38.015Z,67.4
2017-03-27T04:14:18.907Z,68.07
2017-03-27T04:14:59.787Z,68.26
2017-03-27T04:15:40.664Z,68.44
2017-03-27T04:16:21.552Z,68.44
2017-03-27T04:17:02.424Z,68.26
2017-03-27T04:17:43.307Z,68.44
2017-03-27T04:18:24.196Z,68.54
2017-03-27T04:19:05.077Z,68.35
2017-03-27T04:19:45.956Z,68.35
2017-03-27T04:20:26.835Z,68.16
2017-03-27T04:21:07.732Z,68.16
2017-03-27T04:21:48.595Z,68.44
2017-03-27T04:22:29.479Z,68.07
2017-03-27T04:23:10.359Z,68.07
2017-03-27T04:23:51.236Z,67.88
2017-03-27T04:24:32.127Z,68.26
2017-03-27T04:25:13.018Z,67.88
2017-03-27T04:25:53.907Z,68.35
2017-03-27T04:26:34.793Z,68.16
2017-03-27T04:27:15.685Z,67.79
2017-03-27T04:27:56.559Z,67.97
2017-03-27T04:28:37.439Z,67.88
2017-03-27T04:29:18.319Z,67.97
2017-03-27T04:29:59.217Z,67.97
2017-03-27T04:30:40.095Z,68.44
2017-03-27T04:31:20.993Z,68.16
2017-03-27T04:32:01.845Z,68.26
2017-03-27T04:32:42.734Z,68.26
2017-03-27T04:33:23.626Z,68.35
2017-03-27T04:34:04.497Z,67.88
2017-03-27T04:34:45.377Z,68.26
2017-03-27T04:35:26.261Z,68.44
2017-03-27T04:36:07.141Z,68.44
2017-03-27T04:36:48.027Z,68.89
2017-03-27T04:37:28.904Z,69.02
2017-03-27T04:38:09.789Z,68.16
2017-03-27T04:38:50.669Z,67.88
2017-03-27T04:39:31.548Z,68.35
2017-03-27T04:40:12.426Z,68.79
2017-03-27T04:40:53.308Z,68.26
2017-03-27T04:41:34.192Z,69.02
2017-03-27T04:42:15.081Z,68.92
2017-03-27T04:42:55.961Z,68.64
2017-03-27T04:43:36.841Z,68.54
2017-03-27T04:44:17.730Z,69.65
2017-03-27T04:44:58.610Z,68.98
2017-03-27T04:45:39.482Z,69.55
2017-03-27T04:46:20.363Z,69.17
2017-03-27T04:47:01.245Z,69.55
2017-03-27T04:47:42.134Z,69.46
2017-03-27T04:48:23.014Z,69.46
2017-03-27T04:49:03.895Z,68.98
2017-03-27T04:49:44.775Z,69.08
2017-03-27T04:50:25.657Z,68.79
2017-03-27T04:51:06.539Z,68.7
2017-03-27T04:51:47.412Z,68.51
2017-03-27T04:52:28.309Z,69.08
2017-03-27T04:53:09.197Z,68.89
2017-03-27T04:53:50.076Z,68.6
2017-03-27T04:54:30.956Z,68.89
2017-03-27T04:55:11.844Z,68.7
2017-03-27T04:55:52.732Z,68.79
2017-03-27T04:56:33.612Z,69.27
2017-03-27T04:57:14.477Z,69.08
2017-03-27T04:57:55.350Z,68.98
2017-03-27T04:58:36.221Z,69.17
2017-03-27T04:59:17.114Z,68.98
2017-03-27T04:59:57.999Z,69.36
2017-03-27T05:00:38.879Z,68.7
2017-03-27T05:01:19.773Z,69.17
2017-03-27T05:02:00.656Z,68.89
2017-03-27T05:02:41.539Z,68.79
2017-03-27T05:03:22.410Z,68.32
2017-03-27T05:04:03.290Z,69.17
2017-03-27T05:04:44.173Z,68.6
2017-03-27T05:05:25.059Z,68.89
2017-03-27T05:06:05.933Z,68.44
2017-03-27T05:06:46.812Z,68.32
2017-03-27T05:07:27.705Z,68.6
2017-03-27T05:08:08.597Z,68.73
2017-03-27T05:08:49.468Z,68.83
2017-03-27T05:09:30.342Z,68.79
2017-03-27T05:10:11.224Z,68.6
2017-03-27T05:10:52.114Z,68.73
2017-03-27T05:11:33.000Z,68.83
2017-03-27T05:12:13.877Z,68.35
2017-03-27T05:12:54.762Z,68.41
2017-03-27T05:13:35.643Z,68.35
2017-03-27T05:14:16.529Z,68.32
2017-03-27T05:14:57.403Z,68.6
2017-03-27T05:15:38.281Z,68.54
2017-03-27T05:16:19.163Z,68.92
2017-03-27T05:17:00.049Z,69.17
2017-03-27T05:17:40.930Z,69.08
2017-03-27T05:18:21.813Z,69.55
2017-03-27T05:19:02.691Z,69.17
2017-03-27T05:19:43.572Z,68.6
2017-03-27T05:20:24.454Z,68.79
2017-03-27T05:21:05.335Z,69.36
2017-03-27T05:21:46.202Z,69.08
2017-03-27T05:22:27.074Z,69.08
2017-03-27T05:23:07.950Z,69.65
2017-03-27T05:23:48.835Z,69.36
2017-03-27T05:24:29.712Z,69.36
2017-03-27T05:25:10.595Z,69.36
2017-03-27T05:25:51.475Z,69.27
2017-03-27T05:26:32.357Z,69.36
2017-03-27T05:27:13.235Z,69.17
2017-03-27T05:27:54.114Z,68.44
2017-03-27T05:28:34.996Z,68.89
2017-03-27T05:29:15.882Z,68.79
2017-03-27T05:29:56.764Z,69.27
2017-03-27T05:30:37.638Z,70.31
2017-03-27T05:31:18.511Z,70.12
2017-03-27T05:31:59.395Z,70.12
2017-03-27T05:32:40.277Z,70.21
2017-03-27T05:33:21.153Z,70.12
2017-03-27T05:34:02.032Z,69.65
2017-03-27T05:34:42.914Z,69.27
2017-03-27T05:35:23.813Z,69.55
2017-03-27T05:36:04.656Z,69.4
2017-03-27T05:36:45.539Z,68.92
2017-03-27T05:37:26.414Z,69.21
2017-03-27T05:38:07.281Z,69.02
2017-03-27T05:38:48.173Z,69.11
2017-03-27T05:39:29.061Z,68.73
2017-03-27T05:40:09.941Z,68.83
2017-03-27T05:40:50.824Z,68.92
2017-03-27T05:41:31.701Z,68.83
2017-03-27T05:42:12.587Z,68.92
2017-03-27T05:42:53.467Z,68.26
2017-03-27T05:43:34.345Z,68.16
2017-03-27T05:44:15.235Z,68.35
2017-03-27T05:44:56.102Z,68.35
2017-03-27T05:45:36.985Z,69.02
2017-03-27T05:46:17.858Z,68.64
2017-03-27T05:46:58.741Z,68.16
2017-03-27T05:47:39.626Z,69.02
2017-03-27T05:48:20.501Z,68.64
2017-03-27T05:49:01.387Z,68.73
2017-03-27T05:49:42.268Z,68.16
2017-03-27T05:50:23.150Z,68.07
2017-03-27T05:51:04.031Z,68.26
2017-03-27T05:51:44.920Z,68.07
2017-03-27T05:52:25.797Z,68.44
2017-03-27T05:53:06.673Z,68.35
2017-03-27T05:53:47.551Z,68.44
2017-03-27T05:54:28.439Z,68.83
2017-03-27T05:55:09.327Z,69.02
2017-03-27T05:55:50.207Z,68.83
2017-03-27T05:56:31.085Z,69.21
2017-03-27T05:57:11.972Z,69.02
2017-03-27T05:57:52.847Z,68.73
2017-03-27T05:58:33.735Z,67.59
2017-03-27T05:59:14.618Z,68.07
2017-03-27T05:59:55.501Z,67.88
2017-03-27T06:00:36.379Z,68.07
2017-03-27T06:01:17.255Z,67.97
2017-03-27T06:01:58.135Z,67.5
2017-03-27T06:02:39.013Z,67.4
2017-03-27T06:03:19.885Z,67.34
2017-03-27T06:04:00.771Z,67.44
2017-03-27T06:04:41.655Z,66.64
2017-03-27T06:05:22.522Z,66.96
2017-03-27T06:06:03.399Z,67.15
2017-03-27T06:06:44.289Z,66.77
2017-03-27T06:07:25.169Z,66.96
2017-03-27T06:08:06.052Z,66.87
2017-03-27T06:08:46.962Z,66.77
2017-03-27T06:09:27.812Z,66.67
2017-03-27T06:10:08.694Z,66.39
2017-03-27T06:10:49.591Z,66.2
2017-03-27T06:11:30.472Z,66.58
2017-03-27T06:12:11.357Z,65.82
2017-03-27T06:12:52.243Z,66.2
2017-03-27T06:13:33.125Z,66.2
2017-03-27T06:14:14.006Z,65.73
2017-03-27T06:14:54.889Z,66.01
2017-03-27T06:15:35.769Z,65.82
2017-03-27T06:16:16.650Z,66.49
2017-03-27T06:16:57.539Z,66.2
2017-03-27T06:17:38.422Z,66.49
2017-03-27T06:18:19.300Z,66.58
2017-03-27T06:19:00.174Z,66.01
2017-03-27T06:19:41.056Z,65.54
2017-03-27T06:20:21.943Z,65.35
2017-03-27T06:21:02.825Z,65.25
2017-03-27T06:21:43.712Z,65.25
2017-03-27T06:22:24.595Z,65.25
2017-03-27T06:23:05.478Z,65.06
2017-03-27T06:23:46.360Z,65.35
2017-03-27T06:24:27.246Z,65.63
2017-03-27T06:25:08.134Z,65.25
2017-03-27T06:25:49.018Z,65.06
2017-03-27T06:26:29.896Z,64.4
2017-03-27T06:27:10.782Z,64.69
2017-03-27T06:27:51.658Z,64.59
2017-03-27T06:28:32.550Z,64.21
2017-03-27T06:29:13.434Z,64.11
2017-03-27T06:29:54.315Z,64.21
2017-03-27T06:30:35.199Z,64.24
2017-03-27T06:31:16.081Z,63.95
2017-03-27T06:31:56.965Z,63.48
2017-03-27T06:32:37.847Z,63.35
2017-03-27T06:33:18.733Z,63.1
2017-03-27T06:33:59.610Z,63.01
2017-03-27T06:34:40.525Z,62.62
2017-03-27T06:35:21.400Z,62.05
2017-03-27T06:36:02.286Z,61.87
2017-03-27T06:36:43.170Z,61.96
2017-03-27T06:37:24.061Z,61.29
2017-03-27T06:38:04.946Z,61.1
2017-03-27T06:38:45.827Z,60.72
2017-03-27T06:39:26.706Z,60.72
2017-03-27T06:40:07.585Z,60.72
2017-03-27T06:40:48.502Z,60.72
2017-03-27T06:41:29.388Z,60.53
2017-03-27T06:42:10.272Z,59.87
2017-03-27T06:42:51.151Z,60.09
2017-03-27T06:43:32.064Z,58.95
2017-03-27T06:44:12.947Z,58.95
2017-03-27T06:44:53.826Z,59.14
2017-03-27T06:45:34.704Z,58.76
2017-03-27T06:46:15.591Z,59.23
2017-03-27T06:46:56.468Z,59.23
2017-03-27T06:47:37.339Z,59.71
2017-03-27T06:48:18.220Z,59.52
2017-03-27T06:48:59.106Z,59.42
2017-03-27T06:49:39.987Z,59.61
2017-03-27T06:50:20.872Z,58.95
2017-03-27T06:51:01.751Z,59.14
2017-03-27T06:51:42.636Z,58.95
2017-03-27T06:52:23.518Z,58.85
2017-03-27T06:53:04.383Z,58.28
2017-03-27T06:53:45.266Z,58
2017-03-27T06:54:26.142Z,58
2017-03-27T06:55:07.024Z,57.17
2017-03-27T06:55:47.910Z,56.88
2017-03-27T06:56:28.792Z,56.79
2017-03-27T06:57:09.677Z,56.79
2017-03-27T06:57:50.564Z,56.95
2017-03-27T06:58:31.438Z,56.51
2017-03-27T06:59:12.327Z,56.29
2017-03-27T06:59:53.212Z,56
2017-03-27T07:00:34.098Z,56.03
2017-03-27T07:01:14.980Z,56
2017-03-27T07:01:55.868Z,55.65
2017-03-27T07:02:36.751Z,54.79
2017-03-27T07:03:17.631Z,55.17
2017-03-27T07:03:58.523Z,55.08
2017-03-27T07:04:39.397Z,54.89
2017-03-27T07:05:20.279Z,54.03
2017-03-27T07:06:01.158Z,53.65
2017-03-27T07:06:42.041Z,53.36
2017-03-27T07:07:22.924Z,53.08
2017-03-27T07:08:03.807Z,53.17
2017-03-27T07:08:44.692Z,53.27
2017-03-27T07:09:25.572Z,53.55
2017-03-27T07:10:06.464Z,53.46
2017-03-27T07:10:47.346Z,52.8
2017-03-27T07:11:28.230Z,52.41
2017-03-27T07:12:09.113Z,53.27
2017-03-27T07:12:49.996Z,52.7
2017-03-27T07:13:30.875Z,52.7
2017-03-27T07:14:11.762Z,52.32
2017-03-27T07:14:52.646Z,52.61
2017-03-27T07:15:33.533Z,52.03
2017-03-27T07:16:14.417Z,52.15
2017-03-27T07:16:55.295Z,51.49
2017-03-27T07:17:36.177Z,51.01
2017-03-27T07:18:17.061Z,51.49
2017-03-27T07:18:57.941Z,51.1
2017-03-27T07:19:38.823Z,50.92
2017-03-27T07:20:19.702Z,51.01
2017-03-27T07:21:00.569Z,51.56
2017-03-27T07:21:41.457Z,51.39
2017-03-27T07:22:22.343Z,51.3
2017-03-27T07:23:03.223Z,50.92
2017-03-27T07:23:44.093Z,50.25
2017-03-27T07:24:24.977Z,50.35
2017-03-27T07:25:05.856Z,49.96
2017-03-27T07:25:46.746Z,49.3
2017-03-27T07:26:27.628Z,47.71
2017-03-27T07:27:08.511Z,46.84
2017-03-27T07:27:49.389Z,46.94
2017-03-27T07:28:30.288Z,47.32
2017-03-27T07:29:11.172Z,47.61
2017-03-27T07:29:52.055Z,46.84
2017-03-27T07:30:32.942Z,46.28
2017-03-27T07:31:13.822Z,46.18
2017-03-27T07:31:54.700Z,45.61
2017-03-27T07:32:35.582Z,46.28
2017-03-27T07:33:16.467Z,45.7
2017-03-27T07:33:57.349Z,44.85
2017-03-27T07:34:38.249Z,45.23
2017-03-27T07:35:19.145Z,44.56
2017-03-27T07:36:00.030Z,45.14
2017-03-27T07:36:40.913Z,44.66
2017-03-27T07:37:21.822Z,44.37
2017-03-27T07:38:02.716Z,43.99
2017-03-27T07:38:43.588Z,43.61
2017-03-27T07:39:24.467Z,43.16
2017-03-27T07:40:05.358Z,43.16
2017-03-27T07:40:46.232Z,42.49
2017-03-27T07:41:27.111Z,42.58
2017-03-27T07:42:07.994Z,42.58
2017-03-27T07:42:48.937Z,42.87
2017-03-27T07:43:29.750Z,42.77
2017-03-27T07:44:10.640Z,42.77
2017-03-27T07:44:51.507Z,43.13
2017-03-27T07:45:32.401Z,43.16
2017-03-27T07:46:13.288Z,42.87
2017-03-27T07:46:54.178Z,42.11
2017-03-27T07:47:35.063Z,42.01
2017-03-27T07:48:15.949Z,42.4
2017-03-27T07:48:56.834Z,41.53
2017-03-27T07:49:37.713Z,41.82
2017-03-27T07:50:18.588Z,42.68
2017-03-27T07:50:59.474Z,42.3
2017-03-27T07:51:40.367Z,42.01
2017-03-27T07:52:21.252Z,41.82
2017-03-27T07:53:02.143Z,41.63
2017-03-27T07:53:43.021Z,41.35
2017-03-27T07:54:23.912Z,41.16
2017-03-27T07:55:04.962Z,40.8
2017-03-27T07:55:45.838Z,40.6
2017-03-27T07:56:26.745Z,41.06
2017-03-27T07:57:07.630Z,40.7
2017-03-27T07:57:48.526Z,40.41
2017-03-27T07:58:29.399Z,40.22
2017-03-27T07:59:10.285Z,39.94
2017-03-27T07:59:51.179Z,39.84
2017-03-27T08:00:32.053Z,39.46
2017-03-27T08:01:12.956Z,39.39
2017-03-27T08:01:53.871Z,38.81
2017-03-27T08:02:34.740Z,38.53
2017-03-27T08:03:15.615Z,37.68
2017-03-27T08:03:56.497Z,37.68
2017-03-27T08:04:37.381Z,37.3
2017-03-27T08:05:18.271Z,36.83
2017-03-27T08:05:59.161Z,36.44
2017-03-27T08:06:40.056Z,36.66
2017-03-27T08:07:20.945Z,35.99
2017-03-27T08:08:01.852Z,35.6
2017-03-27T08:08:42.732Z,35.8
2017-03-27T08:09:23.617Z,35.32
2017-03-27T08:10:04.513Z,35.13
2017-03-27T08:10:45.389Z,35.05
2017-03-27T08:11:26.276Z,34.95
2017-03-27T08:12:07.170Z,34.95
2017-03-27T08:12:48.059Z,34.48
2017-03-27T08:13:28.951Z,33.52
2017-03-27T08:14:09.840Z,33.91
2017-03-27T08:14:50.737Z,33.54
2017-03-27T08:15:31.619Z,33.06
2017-03-27T08:16:12.547Z,32.68
2017-03-27T08:16:53.400Z,32.68
2017-03-27T08:17:34.286Z,32.31
2017-03-27T08:18:15.184Z,32.12
2017-03-27T08:18:56.083Z,32.03
2017-03-27T08:19:36.975Z,32.21
2017-03-27T08:20:17.866Z,31.64
2017-03-27T08:20:58.759Z,30.88
2017-03-27T08:21:39.650Z,30.88
2017-03-27T08:22:20.550Z,30.8
2017-03-27T08:23:01.440Z,30.32
2017-03-27T08:23:42.339Z,30.41
2017-03-27T08:24:23.227Z,30.03
2017-03-27T08:25:04.127Z,30.8
2017-03-27T08:25:45.023Z,30.32
2017-03-27T08:26:25.912Z,29.84
2017-03-27T08:27:06.820Z,29.65
2017-03-27T08:27:47.720Z,29.57
2017-03-27T08:28:28.612Z,29.95
2017-03-27T08:29:09.519Z,30.05
2017-03-27T08:29:50.422Z,29.86
2017-03-27T08:30:31.314Z,29.66
2017-03-27T08:31:12.210Z,29.19
2017-03-27T08:31:53.116Z,28.63
2017-03-27T08:32:34.013Z,28.33
2017-03-27T08:33:14.918Z,28.61
2017-03-27T08:33:55.819Z,29.38
2017-03-27T08:34:36.735Z,29.09
2017-03-27T08:35:17.636Z,29.01
2017-03-27T08:35:58.534Z,29.01
2017-03-27T08:36:39.470Z,28.44
2017-03-27T08:37:20.376Z,28.15
2017-03-27T08:38:01.296Z,28.05
2017-03-27T08:38:42.191Z,28.05
2017-03-27T08:39:23.102Z,28.24
2017-03-27T08:40:04.002Z,28.26
2017-03-27T08:40:44.898Z,28.16
2017-03-27T08:41:25.802Z,27.39
2017-03-27T08:42:06.705Z,27.49
2017-03-27T08:42:47.602Z,27.67
2017-03-27T08:43:28.507Z,27.76
2017-03-27T08:44:09.415Z,27.38
2017-03-27T08:44:50.385Z,27.58
2017-03-27T08:45:31.231Z,27.95
2017-03-27T08:46:12.138Z,28.24
2017-03-27T08:46:53.045Z,28.15
2017-03-27T08:47:33.979Z,27.67
2017-03-27T08:48:14.845Z,28.05